createdAt,value
2018-04-30T00:02:07.295Z,9.20
2018-04-30T00:05:09.752Z,9.90
2018-04-30T00:08:12.205Z,9.50
2018-04-30T00:11:15.431Z,10.20
2018-04-30T00:14:17.886Z,10.40
2018-04-30T00:17:21.110Z,10.33
2018-04-30T00:20:23.570Z,10.20
2018-04-30T00:23:26.785Z,10.70
2018-04-30T00:26:29.257Z,11.00
2018-04-30T00:29:31.701Z,10.73
2018-04-30T00:32:34.933Z,10.80
2018-04-30T00:35:37.386Z,11.57
2018-04-30T00:38:40.603Z,11.37
2018-04-30T00:41:43.066Z,11.00
2018-04-30T00:44:45.521Z,11.40
2018-04-30T00:47:48.761Z,11.53
2018-04-30T00:50:51.265Z,11.80
2018-04-30T00:53:53.673Z,13.40
2018-04-30T00:56:56.902Z,12.07
2018-04-30T00:59:59.368Z,12.00
2018-04-30T01:03:01.810Z,12.10
2018-04-30T01:06:05.045Z,13.43
2018-04-30T01:09:07.494Z,12.67
2018-04-30T01:12:10.721Z,13.07
2018-04-30T01:15:13.165Z,13.43
2018-04-30T01:18:15.623Z,13.60
2018-04-30T01:21:18.086Z,13.67
2018-04-30T01:24:20.542Z,15.30
2018-04-30T01:27:23.001Z,14.57
2018-04-30T01:30:25.464Z,14.87
2018-04-30T01:33:27.921Z,15.23
2018-04-30T01:36:31.146Z,14.27
2018-04-30T01:39:33.598Z,14.47
2018-04-30T01:42:36.821Z,15.43
2018-04-30T01:45:39.265Z,16.80
2018-04-30T01:48:42.490Z,14.73
2018-04-30T01:51:44.950Z,15.77
2018-04-30T01:54:47.393Z,16.10
2018-04-30T01:57:49.845Z,16.10
2018-04-30T02:00:52.298Z,16.00
2018-04-30T02:03:54.762Z,15.53
2018-04-30T02:06:57.217Z,16.33
2018-04-30T02:10:00.438Z,16.53
2018-04-30T02:13:02.911Z,16.27
2018-04-30T02:16:05.365Z,16.17
2018-04-30T02:19:08.590Z,16.67
2018-04-30T02:22:11.046Z,16.83
2018-04-30T02:25:13.501Z,17.23
2018-04-30T02:28:16.753Z,17.53
2018-04-30T02:31:19.203Z,16.80
2018-04-30T02:34:21.654Z,16.97
2018-04-30T02:37:24.874Z,17.37
2018-04-30T02:40:27.332Z,16.07
2018-04-30T02:43:30.549Z,16.63
2018-04-30T02:46:33.008Z,16.53
2018-04-30T02:49:36.218Z,16.30
2018-04-30T02:52:38.673Z,16.60
2018-04-30T02:55:41.894Z,17.13
2018-04-30T02:58:44.350Z,16.83
2018-04-30T03:01:46.823Z,17.40
2018-04-30T03:04:50.026Z,16.60
2018-04-30T03:07:52.486Z,17.43
2018-04-30T03:10:55.706Z,17.57
2018-04-30T03:13:58.167Z,17.20
2018-04-30T03:17:01.397Z,17.07
2018-04-30T03:20:03.837Z,17.90
2018-04-30T03:23:06.298Z,18.90
2018-04-30T03:26:09.509Z,17.43
2018-04-30T03:29:11.973Z,17.77
2018-04-30T03:32:15.198Z,19.53
2018-04-30T03:35:17.637Z,19.17
2018-04-30T03:38:20.864Z,19.40
2018-04-30T03:41:23.313Z,19.47
2018-04-30T03:44:26.538Z,20.27
2018-04-30T03:47:28.993Z,19.60
2018-04-30T03:50:32.208Z,19.70
2018-04-30T03:53:34.662Z,18.93
2018-04-30T03:56:37.877Z,19.60
2018-04-30T03:59:40.351Z,19.43
2018-04-30T04:06:42.046Z,18.90
2018-04-30T04:09:44.493Z,19.07
2018-04-30T04:12:46.976Z,17.80
2018-04-30T04:15:49.397Z,17.63
2018-04-30T04:18:51.853Z,16.83
2018-04-30T04:21:54.301Z,17.43
2018-04-30T04:24:57.523Z,16.17
2018-04-30T04:27:59.987Z,16.90
2018-04-30T04:31:02.434Z,15.20
2018-04-30T04:34:04.889Z,16.07
2018-04-30T04:37:07.340Z,14.73
2018-04-30T04:40:09.804Z,14.30
2018-04-30T04:43:12.267Z,15.03
2018-04-30T04:46:14.713Z,13.93
2018-04-30T04:49:17.167Z,14.37
2018-04-30T04:52:19.625Z,13.77
2018-04-30T04:55:22.080Z,12.93
2018-04-30T04:58:24.538Z,12.97
2018-04-30T05:01:27.763Z,12.50
2018-04-30T05:04:30.224Z,12.73
2018-04-30T05:07:32.682Z,12.47
2018-04-30T05:10:35.902Z,12.27
2018-04-30T05:13:38.358Z,11.20
2018-04-30T05:16:41.570Z,12.30
2018-04-30T05:19:44.025Z,11.53
2018-04-30T05:22:47.253Z,11.17
2018-04-30T05:25:49.698Z,10.87
2018-04-30T05:28:52.921Z,11.70
2018-04-30T05:31:55.398Z,11.77
2018-04-30T05:34:57.865Z,10.50
2018-04-30T05:38:00.325Z,10.17
2018-04-30T05:41:03.542Z,9.20
2018-04-30T05:44:05.997Z,9.13
2018-04-30T05:47:09.223Z,8.57
2018-04-30T05:50:11.673Z,8.07
2018-04-30T05:53:14.140Z,6.67
2018-04-30T05:56:16.581Z,6.03
2018-04-30T05:59:19.046Z,6.17
2018-04-30T06:02:21.489Z,6.50
2018-04-30T06:05:23.945Z,5.67
2018-04-30T06:08:27.169Z,6.10
2018-04-30T06:11:29.620Z,5.43
2018-04-30T06:14:32.837Z,5.20
2018-04-30T06:17:35.279Z,5.67
2018-04-30T06:20:38.527Z,5.43
2018-04-30T06:23:40.949Z,5.10
2018-04-30T06:26:43.437Z,5.20
2018-04-30T06:29:45.837Z,4.50
2018-04-30T06:32:48.304Z,4.40
2018-04-30T06:35:54.690Z,4.87
2018-04-30T06:38:58.035Z,4.60
2018-04-30T06:42:05.825Z,4.00
2018-04-30T06:45:31.423Z,5.53
2018-04-30T06:48:35.781Z,3.33
2018-04-30T06:51:49.986Z,3.20
2018-04-30T06:54:53.425Z,2.77
2018-04-30T06:57:56.826Z,2.60
2018-04-30T07:01:00.213Z,2.30
2018-04-30T07:04:03.622Z,2.40
2018-04-30T07:07:13.230Z,1.63
2018-04-30T07:10:16.679Z,1.77
2018-04-30T07:13:25.362Z,1.70
2018-04-30T07:16:29.715Z,1.53
2018-04-30T07:19:35.461Z,1.50
2018-04-30T07:22:37.910Z,1.40
2018-04-30T07:25:42.261Z,1.30
2018-04-30T07:29:03.849Z,1.30
2018-04-30T07:32:09.742Z,1.40
2018-04-30T07:35:14.176Z,1.43
2018-04-30T07:38:27.789Z,1.60
2018-04-30T07:41:40.993Z,1.50
2018-04-30T07:48:33.270Z,1.93
2018-04-30T07:51:40.686Z,1.93
2018-04-30T07:54:43.157Z,2.37
2018-04-30T07:57:50.970Z,2.30
2018-04-30T08:01:04.893Z,2.20
2018-04-30T08:04:09.333Z,1.80
2018-04-30T08:07:19.780Z,1.97
2018-04-30T08:10:32.493Z,1.40
2018-04-30T08:13:38.793Z,1.53
2018-04-30T08:16:41.230Z,1.47
2018-04-30T08:19:44.658Z,1.40
2018-04-30T08:23:07.785Z,1.30
2018-04-30T08:26:15.945Z,1.20
2018-04-30T08:29:21.073Z,1.20
2018-04-30T08:36:02.552Z,0.80
2018-04-30T08:39:06.916Z,0.70
2018-04-30T08:42:16.205Z,1.00
2018-04-30T08:45:29.641Z,0.60
2018-04-30T08:59:21.844Z,0.70
2018-04-30T09:02:25.270Z,0.60
2018-04-30T09:05:35.713Z,0.60
2018-04-30T09:09:03.785Z,0.73
2018-04-30T09:12:07.206Z,0.90
2018-04-30T09:18:49.713Z,0.93
2018-04-30T09:22:02.634Z,0.80
2018-04-30T09:25:05.088Z,0.80
2018-04-30T09:28:09.471Z,1.00
2018-04-30T09:31:18.265Z,0.90
2018-04-30T09:34:22.622Z,0.90
2018-04-30T09:37:25.066Z,1.00
2018-04-30T09:40:41.454Z,0.90
2018-04-30T09:43:51.022Z,0.67
2018-04-30T09:46:53.466Z,0.90
2018-04-30T09:49:59.475Z,0.90
2018-04-30T09:53:02.866Z,0.80
2018-04-30T09:56:18.395Z,0.80
2018-04-30T09:59:20.841Z,0.80
2018-04-30T10:02:24.068Z,0.90
2018-04-30T10:05:26.517Z,1.03
2018-04-30T10:08:29.734Z,0.60
2018-04-30T10:11:32.181Z,0.70
2018-04-30T10:14:35.444Z,0.90
2018-04-30T10:17:41.181Z,0.60
2018-04-30T10:20:45.550Z,0.60
2018-04-30T10:23:49.775Z,0.67
2018-04-30T10:26:55.626Z,1.07
2018-04-30T10:30:05.546Z,0.87
2018-04-30T10:36:38.694Z,0.80
2018-04-30T10:39:41.151Z,1.10
2018-04-30T10:42:43.630Z,1.00
2018-04-30T10:45:46.119Z,1.00
2018-04-30T10:48:48.560Z,1.10
2018-04-30T10:51:51.013Z,1.10
2018-04-30T10:54:53.469Z,0.97
2018-04-30T10:57:56.677Z,0.90
2018-04-30T11:01:17.082Z,1.90
2018-04-30T11:04:31.942Z,1.20
2018-04-30T11:07:34.391Z,0.97
2018-04-30T11:10:37.617Z,0.97
2018-04-30T11:13:55.247Z,0.90
2018-04-30T11:17:11.039Z,1.00
2018-04-30T11:20:13.498Z,1.13
2018-04-30T11:23:16.706Z,1.10
2018-04-30T11:26:39.170Z,1.10
2018-04-30T11:29:48.630Z,2.90
2018-04-30T11:32:51.109Z,1.00
2018-04-30T11:35:53.566Z,1.10
2018-04-30T11:38:56.015Z,1.00
2018-04-30T11:45:43.786Z,1.00
2018-04-30T11:48:46.239Z,1.00
2018-04-30T11:51:53.510Z,1.00
2018-04-30T11:54:55.966Z,1.03
2018-04-30T11:58:04.202Z,0.80
2018-04-30T12:01:06.662Z,1.10
2018-04-30T12:04:09.108Z,1.00
2018-04-30T12:07:12.545Z,1.40
2018-04-30T12:10:14.997Z,0.90
2018-04-30T12:13:17.446Z,0.90
2018-04-30T12:16:19.909Z,0.97
2018-04-30T12:19:22.350Z,1.00
2018-04-30T12:22:24.801Z,0.90
2018-04-30T12:25:27.249Z,0.90
2018-04-30T12:28:29.692Z,1.17
2018-04-30T12:31:32.914Z,0.90
2018-04-30T12:34:35.366Z,1.00
2018-04-30T12:37:38.572Z,1.10
2018-04-30T12:40:41.793Z,1.00
2018-04-30T12:43:44.287Z,1.13
2018-04-30T12:46:47.453Z,1.20
2018-04-30T12:49:49.956Z,0.87
2018-04-30T12:52:53.121Z,0.90
2018-04-30T12:55:55.573Z,1.00
2018-04-30T12:58:58.013Z,0.93
2018-04-30T13:02:00.461Z,0.90
2018-04-30T13:05:02.909Z,0.87
2018-04-30T13:08:06.126Z,0.83
2018-04-30T13:11:08.569Z,1.10
2018-04-30T13:14:11.790Z,0.70
2018-04-30T13:17:14.241Z,1.00
2018-04-30T13:20:17.455Z,1.17
2018-04-30T13:23:19.897Z,0.80
2018-04-30T13:26:22.346Z,0.90
2018-04-30T13:29:24.789Z,0.93
2018-04-30T13:32:27.237Z,0.93
2018-04-30T13:35:30.454Z,1.00
2018-04-30T13:38:32.894Z,0.90
2018-04-30T13:41:35.352Z,0.80
2018-04-30T13:44:37.798Z,1.00
2018-04-30T13:47:40.245Z,0.80
2018-04-30T13:50:43.458Z,0.83
2018-04-30T13:53:45.901Z,0.90
2018-04-30T13:56:48.349Z,1.10
2018-04-30T13:59:50.793Z,0.90
2018-04-30T14:02:53.241Z,0.83
2018-04-30T14:05:56.461Z,1.00
2018-04-30T14:08:58.906Z,0.70
2018-04-30T14:12:07.764Z,0.90
2018-04-30T14:15:10.210Z,0.90
2018-04-30T14:18:12.654Z,0.80
2018-04-30T14:21:15.121Z,0.80
2018-04-30T14:24:17.566Z,0.70
2018-04-30T14:27:20.023Z,0.70
2018-04-30T14:30:29.038Z,1.70
2018-04-30T14:33:31.481Z,0.97
2018-04-30T14:36:33.937Z,0.93
2018-04-30T14:39:36.386Z,1.00
2018-04-30T14:42:39.610Z,0.90
2018-04-30T14:45:42.057Z,0.80
2018-04-30T14:48:45.270Z,0.93
2018-04-30T14:51:47.716Z,2.53
2018-04-30T14:55:01.626Z,1.07
2018-04-30T14:58:04.079Z,0.90
2018-04-30T15:01:06.529Z,1.20
2018-04-30T15:04:09.736Z,0.80
2018-04-30T15:07:12.189Z,0.80
2018-04-30T15:10:15.401Z,0.67
2018-04-30T15:13:17.862Z,0.80
2018-04-30T15:16:20.313Z,0.80
2018-04-30T15:19:22.758Z,0.90
2018-04-30T15:22:25.214Z,0.87
2018-04-30T15:25:27.670Z,1.17
2018-04-30T15:28:30.883Z,1.10
2018-04-30T15:31:33.329Z,1.03
2018-04-30T15:34:35.782Z,0.90
2018-04-30T15:37:38.238Z,0.97
2018-04-30T15:40:40.693Z,0.90
2018-04-30T15:43:43.142Z,0.87
2018-04-30T15:46:46.361Z,0.90
2018-04-30T15:49:48.802Z,1.00
2018-04-30T15:52:51.254Z,1.10
2018-04-30T15:55:53.705Z,1.00
2018-04-30T15:58:56.145Z,1.27
2018-04-30T16:01:59.371Z,1.40
2018-04-30T16:05:05.578Z,1.10
2018-04-30T16:08:08.034Z,1.00
2018-04-30T16:11:10.486Z,0.90
2018-04-30T16:14:12.970Z,1.03
2018-04-30T16:17:16.152Z,1.00
2018-04-30T16:20:18.607Z,0.83
2018-04-30T16:23:21.822Z,1.10
2018-04-30T16:26:24.278Z,0.90
2018-04-30T16:29:27.488Z,1.03
2018-04-30T16:32:29.938Z,0.70
2018-04-30T16:35:33.154Z,0.93
2018-04-30T16:38:35.600Z,1.30
2018-04-30T16:41:38.058Z,1.10
2018-04-30T16:44:40.507Z,0.80
2018-04-30T16:47:42.954Z,1.00
2018-04-30T16:50:46.169Z,0.87
2018-04-30T16:53:48.617Z,1.30
2018-04-30T16:56:51.842Z,0.90
2018-04-30T16:59:54.277Z,0.80
2018-04-30T17:02:57.490Z,1.00
2018-04-30T17:05:59.966Z,1.10
2018-04-30T17:09:03.174Z,1.03
2018-04-30T17:12:05.623Z,0.90
2018-04-30T17:15:08.829Z,0.80
2018-04-30T17:18:12.047Z,1.17
2018-04-30T17:21:14.494Z,1.00
2018-04-30T17:24:17.709Z,0.90
2018-04-30T17:27:20.162Z,0.93
2018-04-30T17:30:23.456Z,1.10
2018-04-30T17:33:25.822Z,1.10
2018-04-30T17:36:28.279Z,1.10
2018-04-30T17:39:30.709Z,1.57
2018-04-30T17:42:33.166Z,1.17
2018-04-30T17:45:36.378Z,0.80
2018-04-30T17:48:38.832Z,0.80
2018-04-30T17:51:42.049Z,1.03
2018-04-30T17:54:44.494Z,0.93
2018-04-30T17:57:46.945Z,0.80
2018-04-30T18:00:49.392Z,1.10
2018-04-30T18:03:51.838Z,1.00
2018-04-30T18:06:55.135Z,1.10
2018-04-30T18:09:57.509Z,1.27
2018-04-30T18:13:00.727Z,0.90
2018-04-30T18:16:03.180Z,1.00
2018-04-30T18:19:06.395Z,1.10
2018-04-30T18:22:08.853Z,1.47
2018-04-30T18:25:12.061Z,1.07
2018-04-30T18:28:14.509Z,1.20
2018-04-30T18:31:17.721Z,1.17
2018-04-30T18:34:20.173Z,0.97
2018-04-30T18:37:22.625Z,1.13
2018-04-30T18:40:25.079Z,0.80
2018-04-30T18:43:27.525Z,1.20
2018-04-30T18:46:29.979Z,0.93
2018-04-30T18:49:32.428Z,1.20
2018-04-30T18:52:34.877Z,1.20
2018-04-30T18:55:37.322Z,1.00
2018-04-30T18:58:40.554Z,1.30
2018-04-30T19:01:42.997Z,1.30
2018-04-30T19:04:46.201Z,1.20
2018-04-30T19:07:48.649Z,1.03
2018-04-30T19:10:51.089Z,1.30
2018-04-30T19:13:53.542Z,1.03
2018-04-30T19:16:55.998Z,1.03
2018-04-30T19:19:58.437Z,1.30
2018-04-30T19:23:00.886Z,1.10
2018-04-30T19:26:03.342Z,1.10
2018-04-30T19:29:05.795Z,1.23
2018-04-30T19:32:09.022Z,1.70
2018-04-30T19:35:11.473Z,5.17
2018-04-30T19:38:14.685Z,3.60
2018-04-30T19:41:17.138Z,1.57
2018-04-30T19:44:20.357Z,1.80
2018-04-30T19:47:22.805Z,1.80
2018-04-30T19:50:26.022Z,1.47
2018-04-30T19:53:28.473Z,1.57
2018-04-30T19:56:30.917Z,1.73
2018-04-30T19:59:33.373Z,1.17
2018-04-30T20:02:35.830Z,1.30
2018-04-30T20:05:38.273Z,1.27
2018-04-30T20:08:40.737Z,1.60
2018-04-30T20:11:43.181Z,1.63
2018-04-30T20:14:45.632Z,1.13
2018-04-30T20:17:48.089Z,1.60
2018-04-30T20:20:50.531Z,1.40
2018-04-30T20:23:52.987Z,1.40
2018-04-30T20:26:55.431Z,1.30
2018-04-30T20:29:58.649Z,1.10
2018-04-30T20:33:01.102Z,1.20
2018-04-30T20:36:03.545Z,1.00
2018-04-30T20:39:06.002Z,1.13
2018-04-30T20:42:08.465Z,1.13
2018-04-30T20:45:10.925Z,1.30
2018-04-30T20:48:13.369Z,1.23
2018-04-30T20:51:15.805Z,1.20
2018-04-30T20:54:18.263Z,1.27
2018-04-30T20:57:20.709Z,1.17
2018-04-30T21:00:23.166Z,1.60
2018-04-30T21:03:25.610Z,1.10
2018-04-30T21:06:28.076Z,1.30
2018-04-30T21:09:30.513Z,1.00
2018-04-30T21:12:32.969Z,1.20
2018-04-30T21:15:35.402Z,0.90
2018-04-30T21:18:37.854Z,1.20
2018-04-30T21:21:40.293Z,1.10
2018-04-30T21:24:42.757Z,1.00
2018-04-30T21:27:45.211Z,1.03
2018-04-30T21:30:47.666Z,1.20
2018-04-30T21:33:50.118Z,1.20
2018-04-30T21:36:53.326Z,1.20
2018-04-30T21:39:55.779Z,1.20
2018-04-30T21:42:58.230Z,1.27
2018-04-30T21:46:00.676Z,1.47
2018-04-30T21:49:03.122Z,1.20
2018-04-30T21:52:06.334Z,1.10
2018-04-30T21:55:08.789Z,1.10
2018-04-30T21:58:12.006Z,1.30
2018-04-30T22:01:14.454Z,1.30
2018-04-30T22:04:17.678Z,1.07
2018-04-30T22:07:20.129Z,1.03
2018-04-30T22:10:23.349Z,1.17
2018-04-30T22:13:25.797Z,1.30
2018-04-30T22:16:29.014Z,1.20
2018-04-30T22:19:31.461Z,1.20
2018-04-30T22:22:33.901Z,1.20
2018-04-30T22:25:36.354Z,1.33
2018-04-30T22:28:38.813Z,1.03
2018-04-30T22:31:41.254Z,1.17
2018-04-30T22:34:43.706Z,1.27
2018-04-30T22:37:46.159Z,1.20
2018-04-30T22:40:48.605Z,0.93
2018-04-30T22:43:51.834Z,1.00
2018-04-30T22:46:54.277Z,1.00
2018-04-30T22:49:57.497Z,1.07
2018-04-30T22:52:59.954Z,1.00
2018-04-30T22:56:03.183Z,1.13
2018-04-30T22:59:05.626Z,1.07
2018-04-30T23:02:08.837Z,1.30
2018-04-30T23:05:11.293Z,1.17
2018-04-30T23:08:14.510Z,1.10
2018-04-30T23:11:16.957Z,1.10
2018-04-30T23:14:19.401Z,0.90
2018-04-30T23:17:21.844Z,1.10
2018-04-30T23:20:24.293Z,1.20
2018-04-30T23:23:27.522Z,1.10
2018-04-30T23:26:29.965Z,1.17
2018-04-30T23:29:33.186Z,1.33
2018-04-30T23:32:35.625Z,0.93
2018-04-30T23:35:38.074Z,1.00
2018-04-30T23:38:40.537Z,1.10
2018-04-30T23:41:42.984Z,1.20
2018-04-30T23:44:45.434Z,1.00
2018-04-30T23:47:48.654Z,1.17
2018-04-30T23:50:51.110Z,1.40
2018-04-30T23:53:54.326Z,1.40
2018-04-30T23:56:56.766Z,1.30
2018-04-30T23:59:59.215Z,1.40
